sensor_id;sensor_type;location;lat;lon;timestamp;P1;durP1;ratioP1;P2;durP2;ratioP2
15806;SDS011;8005;51.368;6.140;2023-02-12T00:01:10;86.90;;;40.95;;
15806;SDS011;8005;51.368;6.140;2023-02-12T00:02:43;91.25;;;41.50;;
15806;SDS011;8005;51.368;6.140;2023-02-12T00:04:15;89.20;;;42.35;;
15806;SDS011;8005;51.368;6.140;2023-02-12T00:05:48;82.38;;;40.88;;
15806;SDS011;8005;51.368;6.140;2023-02-12T00:07:20;91.13;;;40.92;;
15806;SDS011;8005;51.368;6.140;2023-02-12T00:10:31;85.15;;;41.42;;
15806;SDS011;8005;51.368;6.140;2023-02-12T00:12:03;92.82;;;42.45;;
15806;SDS011;8005;51.368;6.140;2023-02-12T00:13:36;94.95;;;42.65;;
15806;SDS011;8005;51.368;6.140;2023-02-12T00:15:08;92.35;;;41.28;;
15806;SDS011;8005;51.368;6.140;2023-02-12T00:16:45;87.32;;;42.03;;
15806;SDS011;8005;51.368;6.140;2023-02-12T00:18:19;85.97;;;40.67;;
15806;SDS011;8005;51.368;6.140;2023-02-12T00:19:53;87.25;;;40.83;;
15806;SDS011;8005;51.368;6.140;2023-02-12T00:21:28;92.65;;;42.97;;
15806;SDS011;8005;51.368;6.140;2023-02-12T00:23:01;90.72;;;40.58;;
15806;SDS011;8005;51.368;6.140;2023-02-12T00:24:35;91.82;;;41.75;;
15806;SDS011;8005;51.368;6.140;2023-02-12T00:26:11;95.40;;;43.63;;
15806;SDS011;8005;51.368;6.140;2023-02-12T00:27:49;87.80;;;41.55;;
15806;SDS011;8005;51.368;6.140;2023-02-12T00:29:22;87.80;;;40.88;;
15806;SDS011;8005;51.368;6.140;2023-02-12T00:30:56;87.25;;;39.67;;
15806;SDS011;8005;51.368;6.140;2023-02-12T00:32:36;86.47;;;42.80;;
15806;SDS011;8005;51.368;6.140;2023-02-12T00:34:08;84.05;;;40.53;;
15806;SDS011;8005;51.368;6.140;2023-02-12T00:35:44;86.28;;;41.65;;
15806;SDS011;8005;51.368;6.140;2023-02-12T00:37:18;89.38;;;42.42;;
15806;SDS011;8005;51.368;6.140;2023-02-12T00:38:53;83.82;;;38.88;;
15806;SDS011;8005;51.368;6.140;2023-02-12T00:40:28;95.45;;;42.78;;
15806;SDS011;8005;51.368;6.140;2023-02-12T00:42:00;81.70;;;41.35;;
15806;SDS011;8005;51.368;6.140;2023-02-12T00:43:32;82.03;;;38.70;;
15806;SDS011;8005;51.368;6.140;2023-02-12T00:45:04;89.95;;;41.35;;
15806;SDS011;8005;51.368;6.140;2023-02-12T00:46:36;97.28;;;41.83;;
15806;SDS011;8005;51.368;6.140;2023-02-12T00:48:12;90.63;;;40.88;;
15806;SDS011;8005;51.368;6.140;2023-02-12T00:49:45;83.22;;;39.17;;
15806;SDS011;8005;51.368;6.140;2023-02-12T00:51:17;88.95;;;41.03;;
15806;SDS011;8005;51.368;6.140;2023-02-12T00:52:49;88.72;;;39.78;;
15806;SDS011;8005;51.368;6.140;2023-02-12T00:54:22;81.32;;;40.72;;
15806;SDS011;8005;51.368;6.140;2023-02-12T00:55:57;85.80;;;38.90;;
15806;SDS011;8005;51.368;6.140;2023-02-12T00:57:30;85.60;;;41.03;;
15806;SDS011;8005;51.368;6.140;2023-02-12T00:59:04;85.30;;;41.67;;
15806;SDS011;8005;51.368;6.140;2023-02-12T01:00:36;80.72;;;38.25;;
15806;SDS011;8005;51.368;6.140;2023-02-12T01:02:08;83.68;;;39.85;;
15806;SDS011;8005;51.368;6.140;2023-02-12T01:03:40;83.57;;;39.83;;
15806;SDS011;8005;51.368;6.140;2023-02-12T01:05:12;85.10;;;40.28;;
15806;SDS011;8005;51.368;6.140;2023-02-12T01:06:44;82.15;;;40.17;;
15806;SDS011;8005;51.368;6.140;2023-02-12T01:08:17;88.68;;;40.63;;
15806;SDS011;8005;51.368;6.140;2023-02-12T01:09:49;80.53;;;39.13;;
15806;SDS011;8005;51.368;6.140;2023-02-12T01:11:21;92.35;;;42.03;;
15806;SDS011;8005;51.368;6.140;2023-02-12T01:12:53;81.25;;;40.38;;
15806;SDS011;8005;51.368;6.140;2023-02-12T01:14:25;86.25;;;40.45;;
15806;SDS011;8005;51.368;6.140;2023-02-12T01:16:17;85.00;;;40.53;;
15806;SDS011;8005;51.368;6.140;2023-02-12T01:17:51;86.23;;;39.43;;
15806;SDS011;8005;51.368;6.140;2023-02-12T01:19:23;86.90;;;41.78;;
15806;SDS011;8005;51.368;6.140;2023-02-12T01:20:56;86.95;;;40.78;;
15806;SDS011;8005;51.368;6.140;2023-02-12T01:22:29;80.38;;;38.53;;
15806;SDS011;8005;51.368;6.140;2023-02-12T01:24:01;87.90;;;38.70;;
15806;SDS011;8005;51.368;6.140;2023-02-12T01:25:36;83.05;;;38.22;;
15806;SDS011;8005;51.368;6.140;2023-02-12T01:27:09;83.70;;;38.58;;
15806;SDS011;8005;51.368;6.140;2023-02-12T01:28:41;81.00;;;38.22;;
15806;SDS011;8005;51.368;6.140;2023-02-12T01:30:15;79.00;;;37.38;;
15806;SDS011;8005;51.368;6.140;2023-02-12T01:31:47;80.03;;;37.60;;
15806;SDS011;8005;51.368;6.140;2023-02-12T01:33:21;83.60;;;39.08;;
15806;SDS011;8005;51.368;6.140;2023-02-12T01:34:53;79.05;;;37.35;;
15806;SDS011;8005;51.368;6.140;2023-02-12T01:36:26;73.75;;;37.13;;
15806;SDS011;8005;51.368;6.140;2023-02-12T01:37:59;86.00;;;38.85;;
15806;SDS011;8005;51.368;6.140;2023-02-12T01:39:31;81.45;;;38.55;;
15806;SDS011;8005;51.368;6.140;2023-02-12T01:41:23;82.00;;;38.08;;
15806;SDS011;8005;51.368;6.140;2023-02-12T01:43:01;75.35;;;35.33;;
15806;SDS011;8005;51.368;6.140;2023-02-12T01:44:34;79.63;;;37.60;;
15806;SDS011;8005;51.368;6.140;2023-02-12T01:46:08;81.38;;;37.75;;
15806;SDS011;8005;51.368;6.140;2023-02-12T01:47:43;79.65;;;36.72;;
15806;SDS011;8005;51.368;6.140;2023-02-12T01:49:52;75.03;;;36.70;;
15806;SDS011;8005;51.368;6.140;2023-02-12T01:51:18;76.03;;;36.08;;
15806;SDS011;8005;51.368;6.140;2023-02-12T01:52:52;79.07;;;36.72;;
15806;SDS011;8005;51.368;6.140;2023-02-12T01:54:26;78.28;;;37.70;;
15806;SDS011;8005;51.368;6.140;2023-02-12T01:56:00;80.68;;;37.92;;
15806;SDS011;8005;51.368;6.140;2023-02-12T01:57:34;75.90;;;36.25;;
15806;SDS011;8005;51.368;6.140;2023-02-12T01:59:09;78.15;;;36.80;;
15806;SDS011;8005;51.368;6.140;2023-02-12T02:00:42;75.88;;;36.97;;
15806;SDS011;8005;51.368;6.140;2023-02-12T02:02:15;74.55;;;36.78;;
15806;SDS011;8005;51.368;6.140;2023-02-12T02:03:48;75.78;;;35.88;;
15806;SDS011;8005;51.368;6.140;2023-02-12T02:05:27;74.28;;;37.80;;
15806;SDS011;8005;51.368;6.140;2023-02-12T02:07:08;70.40;;;35.28;;
15806;SDS011;8005;51.368;6.140;2023-02-12T02:08:42;77.68;;;37.45;;
15806;SDS011;8005;51.368;6.140;2023-02-12T02:10:17;75.85;;;37.75;;
15806;SDS011;8005;51.368;6.140;2023-02-12T02:11:50;77.70;;;38.45;;
15806;SDS011;8005;51.368;6.140;2023-02-12T02:13:43;82.50;;;36.17;;
15806;SDS011;8005;51.368;6.140;2023-02-12T02:15:34;82.45;;;38.50;;
15806;SDS011;8005;51.368;6.140;2023-02-12T02:18:58;76.35;;;37.10;;
15806;SDS011;8005;51.368;6.140;2023-02-12T02:20:54;79.05;;;36.40;;
15806;SDS011;8005;51.368;6.140;2023-02-12T02:30:06;77.70;;;37.25;;
15806;SDS011;8005;51.368;6.140;2023-02-12T02:32:02;78.03;;;36.85;;
15806;SDS011;8005;51.368;6.140;2023-02-12T02:33:38;80.05;;;36.13;;
15806;SDS011;8005;51.368;6.140;2023-02-12T02:39:42;75.88;;;35.70;;
15806;SDS011;8005;51.368;6.140;2023-02-12T02:43:09;74.30;;;35.47;;
15806;SDS011;8005;51.368;6.140;2023-02-12T02:44:54;74.97;;;36.10;;
15806;SDS011;8005;51.368;6.140;2023-02-12T02:46:41;74.88;;;36.30;;
15806;SDS011;8005;51.368;6.140;2023-02-12T02:52:01;70.60;;;33.95;;
15806;SDS011;8005;51.368;6.140;2023-02-12T02:53:38;75.07;;;34.95;;
15806;SDS011;8005;51.368;6.140;2023-02-12T02:55:15;71.72;;;35.88;;
15806;SDS011;8005;51.368;6.140;2023-02-12T02:56:50;71.03;;;34.45;;
15806;SDS011;8005;51.368;6.140;2023-02-12T02:58:34;74.97;;;37.30;;
15806;SDS011;8005;51.368;6.140;2023-02-12T03:01:53;77.72;;;35.78;;
15806;SDS011;8005;51.368;6.140;2023-02-12T03:03:31;73.70;;;34.55;;
15806;SDS011;8005;51.368;6.140;2023-02-12T03:05:09;75.60;;;36.13;;
15806;SDS011;8005;51.368;6.140;2023-02-12T03:06:53;69.18;;;34.33;;
15806;SDS011;8005;51.368;6.140;2023-02-12T03:08:30;70.32;;;35.88;;
15806;SDS011;8005;51.368;6.140;2023-02-12T03:10:14;74.75;;;36.50;;
15806;SDS011;8005;51.368;6.140;2023-02-12T03:11:48;79.38;;;36.40;;
15806;SDS011;8005;51.368;6.140;2023-02-12T03:13:26;73.13;;;36.33;;
15806;SDS011;8005;51.368;6.140;2023-02-12T03:15:02;73.00;;;36.45;;
15806;SDS011;8005;51.368;6.140;2023-02-12T03:16:46;86.35;;;38.92;;
15806;SDS011;8005;51.368;6.140;2023-02-12T03:18:24;79.93;;;38.17;;
15806;SDS011;8005;51.368;6.140;2023-02-12T03:20:03;71.25;;;35.45;;
15806;SDS011;8005;51.368;6.140;2023-02-12T03:21:45;73.57;;;35.78;;
15806;SDS011;8005;51.368;6.140;2023-02-12T03:23:41;74.47;;;35.97;;
15806;SDS011;8005;51.368;6.140;2023-02-12T03:25:17;80.15;;;38.40;;
15806;SDS011;8005;51.368;6.140;2023-02-12T03:26:59;76.10;;;38.65;;
15806;SDS011;8005;51.368;6.140;2023-02-12T03:28:36;80.28;;;36.65;;
15806;SDS011;8005;51.368;6.140;2023-02-12T03:30:09;76.35;;;36.35;;
15806;SDS011;8005;51.368;6.140;2023-02-12T03:33:21;86.47;;;40.00;;
15806;SDS011;8005;51.368;6.140;2023-02-12T03:36:53;88.90;;;39.15;;
15806;SDS011;8005;51.368;6.140;2023-02-12T03:38:48;78.60;;;38.35;;
15806;SDS011;8005;51.368;6.140;2023-02-12T03:40:27;78.10;;;38.33;;
15806;SDS011;8005;51.368;6.140;2023-02-12T03:42:08;75.15;;;37.70;;
15806;SDS011;8005;51.368;6.140;2023-02-12T03:45:29;77.25;;;38.58;;
15806;SDS011;8005;51.368;6.140;2023-02-12T03:51:44;77.07;;;39.22;;
15806;SDS011;8005;51.368;6.140;2023-02-12T03:53:19;86.15;;;42.55;;
15806;SDS011;8005;51.368;6.140;2023-02-12T03:54:51;84.47;;;40.35;;
15806;SDS011;8005;51.368;6.140;2023-02-12T03:56:24;90.20;;;40.45;;
15806;SDS011;8005;51.368;6.140;2023-02-12T03:58:00;86.65;;;39.47;;
15806;SDS011;8005;51.368;6.140;2023-02-12T03:59:34;80.30;;;38.10;;
15806;SDS011;8005;51.368;6.140;2023-02-12T04:01:07;79.82;;;40.15;;
15806;SDS011;8005;51.368;6.140;2023-02-12T04:02:40;81.63;;;39.10;;
15806;SDS011;8005;51.368;6.140;2023-02-12T04:04:14;74.70;;;38.85;;
15806;SDS011;8005;51.368;6.140;2023-02-12T04:05:46;80.50;;;40.40;;
15806;SDS011;8005;51.368;6.140;2023-02-12T04:07:18;87.28;;;40.78;;
15806;SDS011;8005;51.368;6.140;2023-02-12T04:08:51;82.35;;;40.83;;
15806;SDS011;8005;51.368;6.140;2023-02-12T04:10:26;83.72;;;40.80;;
15806;SDS011;8005;51.368;6.140;2023-02-12T04:17:58;85.10;;;40.08;;
15806;SDS011;8005;51.368;6.140;2023-02-12T04:25:20;87.05;;;40.92;;
15806;SDS011;8005;51.368;6.140;2023-02-12T04:27:05;82.88;;;41.10;;
15806;SDS011;8005;51.368;6.140;2023-02-12T04:28:45;80.13;;;39.50;;
15806;SDS011;8005;51.368;6.140;2023-02-12T04:30:25;86.57;;;41.60;;
15806;SDS011;8005;51.368;6.140;2023-02-12T04:32:11;82.20;;;39.53;;
15806;SDS011;8005;51.368;6.140;2023-02-12T04:33:48;92.25;;;42.65;;
15806;SDS011;8005;51.368;6.140;2023-02-12T04:35:43;79.85;;;38.65;;
15806;SDS011;8005;51.368;6.140;2023-02-12T04:39:17;88.00;;;41.83;;
15806;SDS011;8005;51.368;6.140;2023-02-12T04:40:53;85.70;;;40.80;;
15806;SDS011;8005;51.368;6.140;2023-02-12T04:42:25;90.20;;;42.30;;
15806;SDS011;8005;51.368;6.140;2023-02-12T04:43:57;79.97;;;39.42;;
15806;SDS011;8005;51.368;6.140;2023-02-12T04:45:31;81.38;;;38.75;;
15806;SDS011;8005;51.368;6.140;2023-02-12T04:47:04;83.65;;;38.05;;
15806;SDS011;8005;51.368;6.140;2023-02-12T04:48:49;85.55;;;39.83;;
15806;SDS011;8005;51.368;6.140;2023-02-12T04:50:23;82.05;;;38.70;;
15806;SDS011;8005;51.368;6.140;2023-02-12T04:51:56;80.95;;;39.15;;
15806;SDS011;8005;51.368;6.140;2023-02-12T04:53:29;85.45;;;39.75;;
15806;SDS011;8005;51.368;6.140;2023-02-12T04:55:01;81.43;;;39.22;;
15806;SDS011;8005;51.368;6.140;2023-02-12T04:56:34;90.13;;;40.08;;
15806;SDS011;8005;51.368;6.140;2023-02-12T04:58:06;84.68;;;40.78;;
15806;SDS011;8005;51.368;6.140;2023-02-12T04:59:38;79.43;;;39.65;;
15806;SDS011;8005;51.368;6.140;2023-02-12T05:01:10;83.50;;;39.33;;
15806;SDS011;8005;51.368;6.140;2023-02-12T05:02:43;81.95;;;37.88;;
15806;SDS011;8005;51.368;6.140;2023-02-12T05:04:16;80.57;;;37.30;;
15806;SDS011;8005;51.368;6.140;2023-02-12T05:05:48;80.45;;;38.33;;
15806;SDS011;8005;51.368;6.140;2023-02-12T05:07:21;84.10;;;37.67;;
15806;SDS011;8005;51.368;6.140;2023-02-12T05:08:53;78.78;;;37.47;;
15806;SDS011;8005;51.368;6.140;2023-02-12T05:10:25;74.15;;;36.33;;
15806;SDS011;8005;51.368;6.140;2023-02-12T05:11:57;74.70;;;37.10;;
15806;SDS011;8005;51.368;6.140;2023-02-12T05:13:29;71.93;;;36.47;;
15806;SDS011;8005;51.368;6.140;2023-02-12T05:15:02;75.88;;;36.28;;
15806;SDS011;8005;51.368;6.140;2023-02-12T05:16:35;80.72;;;36.95;;
15806;SDS011;8005;51.368;6.140;2023-02-12T05:18:07;79.63;;;37.25;;
15806;SDS011;8005;51.368;6.140;2023-02-12T05:19:40;75.15;;;36.63;;
15806;SDS011;8005;51.368;6.140;2023-02-12T05:21:12;81.00;;;38.05;;
15806;SDS011;8005;51.368;6.140;2023-02-12T05:22:45;76.25;;;35.92;;
15806;SDS011;8005;51.368;6.140;2023-02-12T05:24:17;78.47;;;36.83;;
15806;SDS011;8005;51.368;6.140;2023-02-12T05:25:49;78.85;;;35.75;;
15806;SDS011;8005;51.368;6.140;2023-02-12T05:27:21;79.63;;;36.75;;
15806;SDS011;8005;51.368;6.140;2023-02-12T05:28:53;80.30;;;38.42;;
15806;SDS011;8005;51.368;6.140;2023-02-12T05:30:26;82.00;;;36.75;;
15806;SDS011;8005;51.368;6.140;2023-02-12T05:33:57;80.47;;;36.92;;
15806;SDS011;8005;51.368;6.140;2023-02-12T05:35:33;74.93;;;37.38;;
15806;SDS011;8005;51.368;6.140;2023-02-12T05:37:05;72.40;;;35.40;;
15806;SDS011;8005;51.368;6.140;2023-02-12T05:38:37;80.15;;;35.90;;
15806;SDS011;8005;51.368;6.140;2023-02-12T05:40:10;74.97;;;35.85;;
15806;SDS011;8005;51.368;6.140;2023-02-12T05:41:42;76.68;;;35.85;;
15806;SDS011;8005;51.368;6.140;2023-02-12T05:43:17;81.45;;;36.63;;
15806;SDS011;8005;51.368;6.140;2023-02-12T05:44:49;73.20;;;35.60;;
15806;SDS011;8005;51.368;6.140;2023-02-12T05:46:22;82.55;;;37.72;;
15806;SDS011;8005;51.368;6.140;2023-02-12T05:47:54;70.72;;;34.75;;
15806;SDS011;8005;51.368;6.140;2023-02-12T05:49:27;79.55;;;38.25;;
15806;SDS011;8005;51.368;6.140;2023-02-12T05:51:03;72.78;;;36.17;;
15806;SDS011;8005;51.368;6.140;2023-02-12T05:52:36;74.72;;;36.38;;
15806;SDS011;8005;51.368;6.140;2023-02-12T05:54:09;77.28;;;38.05;;
15806;SDS011;8005;51.368;6.140;2023-02-12T05:57:13;75.95;;;34.22;;
15806;SDS011;8005;51.368;6.140;2023-02-12T05:58:46;72.60;;;35.10;;
15806;SDS011;8005;51.368;6.140;2023-02-12T06:00:20;70.68;;;35.63;;
15806;SDS011;8005;51.368;6.140;2023-02-12T06:03:25;69.78;;;33.58;;
15806;SDS011;8005;51.368;6.140;2023-02-12T06:04:57;78.00;;;35.35;;
15806;SDS011;8005;51.368;6.140;2023-02-12T06:06:29;74.82;;;35.17;;
15806;SDS011;8005;51.368;6.140;2023-02-12T06:08:02;72.95;;;33.92;;
15806;SDS011;8005;51.368;6.140;2023-02-12T06:09:34;76.25;;;36.60;;
15806;SDS011;8005;51.368;6.140;2023-02-12T06:11:10;73.72;;;34.38;;
15806;SDS011;8005;51.368;6.140;2023-02-12T06:12:44;78.15;;;36.40;;
15806;SDS011;8005;51.368;6.140;2023-02-12T06:14:17;82.50;;;38.28;;
15806;SDS011;8005;51.368;6.140;2023-02-12T06:15:50;75.97;;;35.80;;
15806;SDS011;8005;51.368;6.140;2023-02-12T06:17:22;75.78;;;36.33;;
15806;SDS011;8005;51.368;6.140;2023-02-12T06:18:55;74.20;;;35.60;;
15806;SDS011;8005;51.368;6.140;2023-02-12T06:20:30;69.25;;;33.60;;
15806;SDS011;8005;51.368;6.140;2023-02-12T06:22:02;73.85;;;34.75;;
15806;SDS011;8005;51.368;6.140;2023-02-12T06:23:34;76.97;;;37.33;;
15806;SDS011;8005;51.368;6.140;2023-02-12T06:25:06;79.20;;;36.80;;
15806;SDS011;8005;51.368;6.140;2023-02-12T06:26:38;71.20;;;35.05;;
15806;SDS011;8005;51.368;6.140;2023-02-12T06:28:11;84.50;;;37.30;;
15806;SDS011;8005;51.368;6.140;2023-02-12T06:29:43;78.13;;;36.00;;
15806;SDS011;8005;51.368;6.140;2023-02-12T06:31:22;78.03;;;36.63;;
15806;SDS011;8005;51.368;6.140;2023-02-12T06:33:02;72.68;;;36.42;;
15806;SDS011;8005;51.368;6.140;2023-02-12T06:34:35;75.47;;;35.72;;
15806;SDS011;8005;51.368;6.140;2023-02-12T06:36:07;75.38;;;35.03;;
15806;SDS011;8005;51.368;6.140;2023-02-12T06:37:39;75.60;;;35.95;;
15806;SDS011;8005;51.368;6.140;2023-02-12T06:39:12;71.82;;;35.92;;
15806;SDS011;8005;51.368;6.140;2023-02-12T06:40:51;77.88;;;36.13;;
15806;SDS011;8005;51.368;6.140;2023-02-12T06:42:23;77.75;;;35.80;;
15806;SDS011;8005;51.368;6.140;2023-02-12T06:45:28;76.57;;;35.00;;
15806;SDS011;8005;51.368;6.140;2023-02-12T06:47:09;74.53;;;34.63;;
15806;SDS011;8005;51.368;6.140;2023-02-12T06:48:41;73.30;;;33.97;;
15806;SDS011;8005;51.368;6.140;2023-02-12T06:50:14;78.05;;;34.47;;
15806;SDS011;8005;51.368;6.140;2023-02-12T06:51:51;78.95;;;35.60;;
15806;SDS011;8005;51.368;6.140;2023-02-12T06:53:23;73.22;;;35.40;;
15806;SDS011;8005;51.368;6.140;2023-02-12T06:54:56;76.47;;;35.45;;
15806;SDS011;8005;51.368;6.140;2023-02-12T06:56:29;72.40;;;35.83;;
15806;SDS011;8005;51.368;6.140;2023-02-12T06:58:03;77.78;;;36.75;;
15806;SDS011;8005;51.368;6.140;2023-02-12T06:59:35;70.15;;;35.13;;
15806;SDS011;8005;51.368;6.140;2023-02-12T07:01:13;72.38;;;36.03;;
15806;SDS011;8005;51.368;6.140;2023-02-12T07:02:52;74.63;;;36.15;;
15806;SDS011;8005;51.368;6.140;2023-02-12T07:04:25;75.20;;;36.83;;
15806;SDS011;8005;51.368;6.140;2023-02-12T07:05:57;75.82;;;36.85;;
15806;SDS011;8005;51.368;6.140;2023-02-12T07:07:30;80.40;;;35.70;;
15806;SDS011;8005;51.368;6.140;2023-02-12T07:09:02;78.78;;;36.53;;
15806;SDS011;8005;51.368;6.140;2023-02-12T07:10:37;85.03;;;37.33;;
15806;SDS011;8005;51.368;6.140;2023-02-12T07:12:18;78.50;;;35.47;;
15806;SDS011;8005;51.368;6.140;2023-02-12T07:13:51;76.97;;;36.30;;
15806;SDS011;8005;51.368;6.140;2023-02-12T07:15:30;77.53;;;35.38;;
15806;SDS011;8005;51.368;6.140;2023-02-12T07:17:05;78.18;;;37.95;;
15806;SDS011;8005;51.368;6.140;2023-02-12T07:18:42;77.60;;;35.53;;
15806;SDS011;8005;51.368;6.140;2023-02-12T07:20:19;75.72;;;35.78;;
15806;SDS011;8005;51.368;6.140;2023-02-12T07:21:58;78.60;;;36.08;;
15806;SDS011;8005;51.368;6.140;2023-02-12T07:23:38;78.13;;;36.08;;
15806;SDS011;8005;51.368;6.140;2023-02-12T07:25:13;73.20;;;36.28;;
15806;SDS011;8005;51.368;6.140;2023-02-12T07:26:46;83.32;;;36.17;;
15806;SDS011;8005;51.368;6.140;2023-02-12T07:28:19;77.28;;;34.90;;
15806;SDS011;8005;51.368;6.140;2023-02-12T07:29:51;73.13;;;34.58;;
15806;SDS011;8005;51.368;6.140;2023-02-12T07:31:23;76.85;;;36.47;;
15806;SDS011;8005;51.368;6.140;2023-02-12T07:33:00;68.15;;;34.58;;
15806;SDS011;8005;51.368;6.140;2023-02-12T07:34:38;73.55;;;35.70;;
15806;SDS011;8005;51.368;6.140;2023-02-12T07:36:22;70.28;;;34.85;;
15806;SDS011;8005;51.368;6.140;2023-02-12T07:37:58;75.05;;;34.35;;
15806;SDS011;8005;51.368;6.140;2023-02-12T07:39:30;76.50;;;36.65;;
15806;SDS011;8005;51.368;6.140;2023-02-12T07:41:13;73.88;;;36.80;;
15806;SDS011;8005;51.368;6.140;2023-02-12T07:42:45;74.43;;;34.88;;
15806;SDS011;8005;51.368;6.140;2023-02-12T07:44:20;74.85;;;36.13;;
15806;SDS011;8005;51.368;6.140;2023-02-12T07:45:53;69.25;;;34.42;;
15806;SDS011;8005;51.368;6.140;2023-02-12T07:47:25;75.60;;;37.15;;
15806;SDS011;8005;51.368;6.140;2023-02-12T07:48:58;77.30;;;36.63;;
15806;SDS011;8005;51.368;6.140;2023-02-12T07:50:31;83.35;;;38.40;;
15806;SDS011;8005;51.368;6.140;2023-02-12T07:52:04;74.07;;;35.58;;
15806;SDS011;8005;51.368;6.140;2023-02-12T07:53:36;81.22;;;36.65;;
15806;SDS011;8005;51.368;6.140;2023-02-12T07:55:09;79.03;;;36.08;;
15806;SDS011;8005;51.368;6.140;2023-02-12T07:56:41;77.85;;;36.35;;
15806;SDS011;8005;51.368;6.140;2023-02-12T07:58:17;80.97;;;39.35;;
15806;SDS011;8005;51.368;6.140;2023-02-12T07:59:49;76.93;;;38.25;;
15806;SDS011;8005;51.368;6.140;2023-02-12T08:01:23;81.10;;;38.63;;
15806;SDS011;8005;51.368;6.140;2023-02-12T08:02:57;78.35;;;37.15;;
15806;SDS011;8005;51.368;6.140;2023-02-12T08:04:30;76.55;;;37.92;;
15806;SDS011;8005;51.368;6.140;2023-02-12T08:06:10;83.65;;;39.42;;
15806;SDS011;8005;51.368;6.140;2023-02-12T08:07:44;83.72;;;38.67;;
15806;SDS011;8005;51.368;6.140;2023-02-12T08:10:52;73.30;;;35.72;;
15806;SDS011;8005;51.368;6.140;2023-02-12T08:12:30;76.57;;;36.85;;
15806;SDS011;8005;51.368;6.140;2023-02-12T08:14:05;78.88;;;37.58;;
15806;SDS011;8005;51.368;6.140;2023-02-12T08:15:40;75.25;;;36.50;;
15806;SDS011;8005;51.368;6.140;2023-02-12T08:17:12;74.78;;;36.17;;
15806;SDS011;8005;51.368;6.140;2023-02-12T08:18:51;76.82;;;36.20;;
15806;SDS011;8005;51.368;6.140;2023-02-12T08:20:23;77.53;;;37.30;;
15806;SDS011;8005;51.368;6.140;2023-02-12T08:21:56;74.97;;;37.50;;
15806;SDS011;8005;51.368;6.140;2023-02-12T08:23:29;76.47;;;36.17;;
15806;SDS011;8005;51.368;6.140;2023-02-12T08:25:05;85.07;;;38.03;;
15806;SDS011;8005;51.368;6.140;2023-02-12T08:26:38;74.88;;;37.15;;
15806;SDS011;8005;51.368;6.140;2023-02-12T08:28:13;78.38;;;37.05;;
15806;SDS011;8005;51.368;6.140;2023-02-12T08:29:56;77.15;;;36.00;;
15806;SDS011;8005;51.368;6.140;2023-02-12T08:31:33;73.70;;;36.33;;
15806;SDS011;8005;51.368;6.140;2023-02-12T08:33:08;82.68;;;38.45;;
15806;SDS011;8005;51.368;6.140;2023-02-12T08:34:40;75.90;;;37.38;;
15806;SDS011;8005;51.368;6.140;2023-02-12T08:36:14;78.40;;;37.58;;
15806;SDS011;8005;51.368;6.140;2023-02-12T08:37:50;81.43;;;37.50;;
15806;SDS011;8005;51.368;6.140;2023-02-12T08:39:35;78.43;;;36.50;;
15806;SDS011;8005;51.368;6.140;2023-02-12T08:41:09;77.60;;;37.20;;
15806;SDS011;8005;51.368;6.140;2023-02-12T08:42:46;71.78;;;35.15;;
15806;SDS011;8005;51.368;6.140;2023-02-12T08:44:18;77.78;;;37.35;;
15806;SDS011;8005;51.368;6.140;2023-02-12T08:45:51;81.15;;;38.42;;
15806;SDS011;8005;51.368;6.140;2023-02-12T08:48:58;70.45;;;34.55;;
15806;SDS011;8005;51.368;6.140;2023-02-12T08:50:42;78.65;;;36.92;;
15806;SDS011;8005;51.368;6.140;2023-02-12T08:52:16;79.45;;;37.78;;
15806;SDS011;8005;51.368;6.140;2023-02-12T08:53:55;77.13;;;36.75;;
15806;SDS011;8005;51.368;6.140;2023-02-12T08:55:30;77.05;;;35.55;;
15806;SDS011;8005;51.368;6.140;2023-02-12T08:57:15;78.38;;;39.20;;
15806;SDS011;8005;51.368;6.140;2023-02-12T08:58:51;72.18;;;36.15;;
15806;SDS011;8005;51.368;6.140;2023-02-12T09:01:02;74.75;;;36.53;;
15806;SDS011;8005;51.368;6.140;2023-02-12T09:02:43;73.50;;;36.17;;
15806;SDS011;8005;51.368;6.140;2023-02-12T09:04:24;71.75;;;35.78;;
15806;SDS011;8005;51.368;6.140;2023-02-12T09:06:10;73.38;;;36.08;;
15806;SDS011;8005;51.368;6.140;2023-02-12T09:07:43;74.05;;;36.28;;
15806;SDS011;8005;51.368;6.140;2023-02-12T09:09:26;74.80;;;37.53;;
15806;SDS011;8005;51.368;6.140;2023-02-12T09:11:10;75.05;;;36.40;;
15806;SDS011;8005;51.368;6.140;2023-02-12T09:12:57;79.05;;;36.83;;
15806;SDS011;8005;51.368;6.140;2023-02-12T09:14:38;78.13;;;37.60;;
15806;SDS011;8005;51.368;6.140;2023-02-12T09:18:23;80.38;;;36.97;;
15806;SDS011;8005;51.368;6.140;2023-02-12T09:19:59;68.00;;;34.13;;
15806;SDS011;8005;51.368;6.140;2023-02-12T09:25:06;68.28;;;34.90;;
15806;SDS011;8005;51.368;6.140;2023-02-12T09:26:44;75.07;;;35.95;;
15806;SDS011;8005;51.368;6.140;2023-02-12T09:29:03;67.80;;;34.53;;
15806;SDS011;8005;51.368;6.140;2023-02-12T09:48:28;73.45;;;34.22;;
15806;SDS011;8005;51.368;6.140;2023-02-12T09:50:21;74.22;;;34.85;;
15806;SDS011;8005;51.368;6.140;2023-02-12T10:50:06;63.13;;;33.88;;
15806;SDS011;8005;51.368;6.140;2023-02-12T10:52:52;67.28;;;34.15;;
15806;SDS011;8005;51.368;6.140;2023-02-12T10:56:49;61.97;;;30.30;;
15806;SDS011;8005;51.368;6.140;2023-02-12T11:04:31;62.55;;;30.33;;
15806;SDS011;8005;51.368;6.140;2023-02-12T11:09:41;61.53;;;30.88;;
15806;SDS011;8005;51.368;6.140;2023-02-12T11:17:45;59.13;;;28.88;;
15806;SDS011;8005;51.368;6.140;2023-02-12T11:20:32;59.60;;;29.10;;
15806;SDS011;8005;51.368;6.140;2023-02-12T11:23:45;54.70;;;26.73;;
15806;SDS011;8005;51.368;6.140;2023-02-12T11:26:33;47.92;;;25.08;;
15806;SDS011;8005;51.368;6.140;2023-02-12T11:36:45;52.58;;;27.50;;
15806;SDS011;8005;51.368;6.140;2023-02-12T13:10:16;43.10;;;23.27;;
15806;SDS011;8005;51.368;6.140;2023-02-12T13:14:51;45.13;;;22.80;;
15806;SDS011;8005;51.368;6.140;2023-02-12T13:17:02;46.20;;;23.05;;
15806;SDS011;8005;51.368;6.140;2023-02-12T13:20:00;43.22;;;22.88;;
15806;SDS011;8005;51.368;6.140;2023-02-12T13:27:29;50.40;;;24.52;;
15806;SDS011;8005;51.368;6.140;2023-02-12T13:29:50;46.28;;;23.63;;
15806;SDS011;8005;51.368;6.140;2023-02-12T13:32:06;42.88;;;21.58;;
15806;SDS011;8005;51.368;6.140;2023-02-12T13:33:51;44.58;;;22.23;;
15806;SDS011;8005;51.368;6.140;2023-02-12T13:35:36;44.70;;;23.83;;
15806;SDS011;8005;51.368;6.140;2023-02-12T13:37:43;48.75;;;23.63;;
15806;SDS011;8005;51.368;6.140;2023-02-12T13:39:31;41.10;;;22.55;;
15806;SDS011;8005;51.368;6.140;2023-02-12T13:44:18;39.55;;;21.55;;
15806;SDS011;8005;51.368;6.140;2023-02-12T13:52:22;48.42;;;23.48;;
15806;SDS011;8005;51.368;6.140;2023-02-12T13:54:13;41.47;;;22.08;;
15806;SDS011;8005;51.368;6.140;2023-02-12T13:56:06;52.58;;;24.95;;
15806;SDS011;8005;51.368;6.140;2023-02-12T13:58:38;48.33;;;24.35;;
15806;SDS011;8005;51.368;6.140;2023-02-12T14:00:27;47.63;;;23.48;;
15806;SDS011;8005;51.368;6.140;2023-02-12T14:06:31;50.58;;;25.42;;
15806;SDS011;8005;51.368;6.140;2023-02-12T14:08:06;42.53;;;24.55;;
15806;SDS011;8005;51.368;6.140;2023-02-12T14:11:24;50.00;;;25.58;;
15806;SDS011;8005;51.368;6.140;2023-02-12T14:13:23;47.63;;;24.60;;
15806;SDS011;8005;51.368;6.140;2023-02-12T14:24:39;44.95;;;23.55;;
15806;SDS011;8005;51.368;6.140;2023-02-12T14:26:52;48.00;;;24.48;;
15806;SDS011;8005;51.368;6.140;2023-02-12T14:37:09;46.28;;;23.65;;
15806;SDS011;8005;51.368;6.140;2023-02-12T14:49:47;46.92;;;22.83;;
15806;SDS011;8005;51.368;6.140;2023-02-12T14:51:57;47.92;;;24.45;;